sensor_id;sensor_type;location;lat;lon;timestamp;temperature;humidity
8611;DHT22;4343;53.648;10.098;2023-09-19T00:00:30;16.90;99.90
8611;DHT22;4343;53.648;10.098;2023-09-19T00:02:56;16.90;99.90
8611;DHT22;4343;53.648;10.098;2023-09-19T00:05:23;16.90;99.90
8611;DHT22;4343;53.648;10.098;2023-09-19T00:07:50;16.90;99.90
8611;DHT22;4343;53.648;10.098;2023-09-19T00:10:16;16.90;99.90
8611;DHT22;4343;53.648;10.098;2023-09-19T00:12:44;16.90;99.90
8611;DHT22;4343;53.648;10.098;2023-09-19T00:15:09;16.90;99.90
8611;DHT22;4343;53.648;10.098;2023-09-19T00:17:36;16.90;99.90
8611;DHT22;4343;53.648;10.098;2023-09-19T00:20:03;16.90;99.90
8611;DHT22;4343;53.648;10.098;2023-09-19T00:22:32;16.90;99.90
8611;DHT22;4343;53.648;10.098;2023-09-19T00:24:58;16.90;99.90
8611;DHT22;4343;53.648;10.098;2023-09-19T00:27:23;16.90;99.90
8611;DHT22;4343;53.648;10.098;2023-09-19T00:29:49;16.80;99.90
8611;DHT22;4343;53.648;10.098;2023-09-19T00:32:14;16.80;99.90
8611;DHT22;4343;53.648;10.098;2023-09-19T00:34:40;16.80;99.90
8611;DHT22;4343;53.648;10.098;2023-09-19T00:37:05;16.80;99.90
8611;DHT22;4343;53.648;10.098;2023-09-19T00:39:30;16.80;99.90
8611;DHT22;4343;53.648;10.098;2023-09-19T00:41:57;16.80;99.90
8611;DHT22;4343;53.648;10.098;2023-09-19T00:44:22;16.80;99.90
8611;DHT22;4343;53.648;10.098;2023-09-19T00:46:49;16.80;99.90
8611;DHT22;4343;53.648;10.098;2023-09-19T00:49:15;16.80;99.90
8611;DHT22;4343;53.648;10.098;2023-09-19T00:51:42;16.70;99.90
8611;DHT22;4343;53.648;10.098;2023-09-19T00:54:11;16.80;99.90
8611;DHT22;4343;53.648;10.098;2023-09-19T00:56:38;16.70;99.90
8611;DHT22;4343;53.648;10.098;2023-09-19T00:59:05;16.70;99.90
8611;DHT22;4343;53.648;10.098;2023-09-19T01:01:31;16.70;99.90
8611;DHT22;4343;53.648;10.098;2023-09-19T01:03:58;16.70;99.90
8611;DHT22;4343;53.648;10.098;2023-09-19T01:06:24;16.70;99.90
8611;DHT22;4343;53.648;10.098;2023-09-19T01:08:49;16.70;99.90
8611;DHT22;4343;53.648;10.098;2023-09-19T01:11:35;16.70;99.90
8611;DHT22;4343;53.648;10.098;2023-09-19T01:14:30;16.70;99.90
8611;DHT22;4343;53.648;10.098;2023-09-19T01:17:04;16.70;99.90
8611;DHT22;4343;53.648;10.098;2023-09-19T01:20:03;16.70;99.90
8611;DHT22;4343;53.648;10.098;2023-09-19T01:23:20;16.60;99.90
8611;DHT22;4343;53.648;10.098;2023-09-19T01:26:07;16.60;99.90
8611;DHT22;4343;53.648;10.098;2023-09-19T01:31:45;16.60;99.90
8611;DHT22;4343;53.648;10.098;2023-09-19T01:34:12;16.60;99.90
8611;DHT22;4343;53.648;10.098;2023-09-19T01:36:38;16.60;99.90
8611;DHT22;4343;53.648;10.098;2023-09-19T01:39:04;16.60;99.90
8611;DHT22;4343;53.648;10.098;2023-09-19T01:41:59;16.60;99.90
8611;DHT22;4343;53.648;10.098;2023-09-19T01:44:40;16.60;99.90
8611;DHT22;4343;53.648;10.098;2023-09-19T01:47:19;16.60;99.90
8611;DHT22;4343;53.648;10.098;2023-09-19T01:50:02;16.50;99.90
8611;DHT22;4343;53.648;10.098;2023-09-19T01:52:36;16.60;99.90
8611;DHT22;4343;53.648;10.098;2023-09-19T01:55:06;16.60;99.90
8611;DHT22;4343;53.648;10.098;2023-09-19T02:00:14;16.50;99.90
8611;DHT22;4343;53.648;10.098;2023-09-19T02:02:46;16.50;99.90
8611;DHT22;4343;53.648;10.098;2023-09-19T02:05:13;16.40;99.90
8611;DHT22;4343;53.648;10.098;2023-09-19T02:07:39;16.50;99.90
8611;DHT22;4343;53.648;10.098;2023-09-19T02:10:06;16.40;99.90
8611;DHT22;4343;53.648;10.098;2023-09-19T02:12:33;16.50;99.90
8611;DHT22;4343;53.648;10.098;2023-09-19T02:15:00;16.50;99.90
8611;DHT22;4343;53.648;10.098;2023-09-19T02:17:25;16.40;99.90
8611;DHT22;4343;53.648;10.098;2023-09-19T02:19:52;16.40;99.90
8611;DHT22;4343;53.648;10.098;2023-09-19T02:22:18;16.40;99.90
8611;DHT22;4343;53.648;10.098;2023-09-19T02:24:43;16.30;99.90
8611;DHT22;4343;53.648;10.098;2023-09-19T02:27:09;16.30;99.90
8611;DHT22;4343;53.648;10.098;2023-09-19T02:29:37;16.30;99.90
8611;DHT22;4343;53.648;10.098;2023-09-19T02:32:03;16.30;99.90
8611;DHT22;4343;53.648;10.098;2023-09-19T02:34:29;16.30;99.90
8611;DHT22;4343;53.648;10.098;2023-09-19T02:36:54;16.30;99.90
8611;DHT22;4343;53.648;10.098;2023-09-19T02:39:21;16.30;99.90
8611;DHT22;4343;53.648;10.098;2023-09-19T02:41:47;16.20;99.90
8611;DHT22;4343;53.648;10.098;2023-09-19T02:44:12;16.20;99.90
8611;DHT22;4343;53.648;10.098;2023-09-19T02:46:38;16.20;99.90
8611;DHT22;4343;53.648;10.098;2023-09-19T02:49:03;16.20;99.90
8611;DHT22;4343;53.648;10.098;2023-09-19T02:51:32;16.20;99.90
8611;DHT22;4343;53.648;10.098;2023-09-19T02:53:59;16.10;99.90
8611;DHT22;4343;53.648;10.098;2023-09-19T02:56:25;16.20;99.90
8611;DHT22;4343;53.648;10.098;2023-09-19T02:58:50;16.20;99.90
8611;DHT22;4343;53.648;10.098;2023-09-19T03:01:16;16.20;99.90
8611;DHT22;4343;53.648;10.098;2023-09-19T03:03:44;16.20;99.90
8611;DHT22;4343;53.648;10.098;2023-09-19T03:06:10;16.10;99.90
8611;DHT22;4343;53.648;10.098;2023-09-19T03:08:36;16.20;99.90
8611;DHT22;4343;53.648;10.098;2023-09-19T03:11:04;16.20;99.90
8611;DHT22;4343;53.648;10.098;2023-09-19T03:13:34;16.10;99.90
8611;DHT22;4343;53.648;10.098;2023-09-19T03:16:01;16.10;99.90
8611;DHT22;4343;53.648;10.098;2023-09-19T03:18:30;16.10;99.90
8611;DHT22;4343;53.648;10.098;2023-09-19T03:20:57;16.20;99.90
8611;DHT22;4343;53.648;10.098;2023-09-19T03:23:25;16.20;99.90
8611;DHT22;4343;53.648;10.098;2023-09-19T03:25:51;16.10;99.90
8611;DHT22;4343;53.648;10.098;2023-09-19T03:28:17;16.10;99.90
8611;DHT22;4343;53.648;10.098;2023-09-19T03:30:44;16.20;99.90
8611;DHT22;4343;53.648;10.098;2023-09-19T03:33:09;16.10;99.90
8611;DHT22;4343;53.648;10.098;2023-09-19T03:35:37;16.10;99.90
8611;DHT22;4343;53.648;10.098;2023-09-19T03:38:03;16.10;99.90
8611;DHT22;4343;53.648;10.098;2023-09-19T03:40:29;16.10;99.90
8611;DHT22;4343;53.648;10.098;2023-09-19T03:42:55;16.10;99.90
8611;DHT22;4343;53.648;10.098;2023-09-19T03:45:21;16.10;99.90
8611;DHT22;4343;53.648;10.098;2023-09-19T03:47:46;16.10;99.90
8611;DHT22;4343;53.648;10.098;2023-09-19T03:50:15;16.10;99.90
8611;DHT22;4343;53.648;10.098;2023-09-19T03:52:45;16.10;99.90
8611;DHT22;4343;53.648;10.098;2023-09-19T03:55:11;16.10;99.90
8611;DHT22;4343;53.648;10.098;2023-09-19T03:57:37;16.10;99.90
8611;DHT22;4343;53.648;10.098;2023-09-19T04:00:04;16.10;99.90
8611;DHT22;4343;53.648;10.098;2023-09-19T04:02:37;16.00;99.90
8611;DHT22;4343;53.648;10.098;2023-09-19T04:05:03;16.00;99.90
8611;DHT22;4343;53.648;10.098;2023-09-19T04:07:29;16.00;99.90
8611;DHT22;4343;53.648;10.098;2023-09-19T04:09:55;16.00;99.90
8611;DHT22;4343;53.648;10.098;2023-09-19T04:12:20;16.00;99.90
8611;DHT22;4343;53.648;10.098;2023-09-19T04:14:46;16.00;99.90
8611;DHT22;4343;53.648;10.098;2023-09-19T04:17:12;16.00;99.90
8611;DHT22;4343;53.648;10.098;2023-09-19T04:19:38;15.90;99.90
8611;DHT22;4343;53.648;10.098;2023-09-19T04:22:03;15.90;99.90
8611;DHT22;4343;53.648;10.098;2023-09-19T04:24:29;15.90;99.90
8611;DHT22;4343;53.648;10.098;2023-09-19T04:26:55;15.90;99.90
8611;DHT22;4343;53.648;10.098;2023-09-19T04:29:22;15.80;99.90
8611;DHT22;4343;53.648;10.098;2023-09-19T04:31:48;15.80;99.90
8611;DHT22;4343;53.648;10.098;2023-09-19T04:34:13;15.70;99.90
8611;DHT22;4343;53.648;10.098;2023-09-19T04:36:42;15.70;99.90
8611;DHT22;4343;53.648;10.098;2023-09-19T04:39:08;15.70;99.90
8611;DHT22;4343;53.648;10.098;2023-09-19T04:41:36;15.70;99.90
8611;DHT22;4343;53.648;10.098;2023-09-19T04:44:05;15.60;99.90
8611;DHT22;4343;53.648;10.098;2023-09-19T04:46:30;15.60;99.90
8611;DHT22;4343;53.648;10.098;2023-09-19T04:48:56;15.50;99.90
8611;DHT22;4343;53.648;10.098;2023-09-19T04:51:21;15.50;99.90
8611;DHT22;4343;53.648;10.098;2023-09-19T04:53:47;15.50;99.90
8611;DHT22;4343;53.648;10.098;2023-09-19T04:56:13;15.50;99.90
8611;DHT22;4343;53.648;10.098;2023-09-19T04:58:38;15.40;99.90
8611;DHT22;4343;53.648;10.098;2023-09-19T05:01:04;15.40;99.90
8611;DHT22;4343;53.648;10.098;2023-09-19T05:03:30;15.40;99.90
8611;DHT22;4343;53.648;10.098;2023-09-19T05:05:56;15.30;99.90
8611;DHT22;4343;53.648;10.098;2023-09-19T05:08:21;15.20;99.90
8611;DHT22;4343;53.648;10.098;2023-09-19T05:10:47;15.20;99.90
8611;DHT22;4343;53.648;10.098;2023-09-19T05:13:14;15.20;99.90
8611;DHT22;4343;53.648;10.098;2023-09-19T05:15:40;15.20;99.90
8611;DHT22;4343;53.648;10.098;2023-09-19T05:18:05;15.20;99.90
8611;DHT22;4343;53.648;10.098;2023-09-19T05:20:31;15.20;99.90
8611;DHT22;4343;53.648;10.098;2023-09-19T05:23:06;15.20;99.90
8611;DHT22;4343;53.648;10.098;2023-09-19T05:25:39;15.10;99.90
8611;DHT22;4343;53.648;10.098;2023-09-19T05:28:10;15.10;99.90
8611;DHT22;4343;53.648;10.098;2023-09-19T05:30:37;15.10;99.90
8611;DHT22;4343;53.648;10.098;2023-09-19T05:33:04;15.10;99.90
8611;DHT22;4343;53.648;10.098;2023-09-19T05:35:30;15.00;99.90
8611;DHT22;4343;53.648;10.098;2023-09-19T05:37:57;15.00;99.90
8611;DHT22;4343;53.648;10.098;2023-09-19T05:40:24;15.00;99.90
8611;DHT22;4343;53.648;10.098;2023-09-19T05:42:50;15.00;99.90
8611;DHT22;4343;53.648;10.098;2023-09-19T05:45:16;14.90;99.90
8611;DHT22;4343;53.648;10.098;2023-09-19T05:47:48;14.90;99.90
8611;DHT22;4343;53.648;10.098;2023-09-19T05:50:13;14.90;99.90
8611;DHT22;4343;53.648;10.098;2023-09-19T05:52:40;14.80;99.90
8611;DHT22;4343;53.648;10.098;2023-09-19T05:55:08;14.80;99.90
8611;DHT22;4343;53.648;10.098;2023-09-19T05:57:34;14.80;99.90
8611;DHT22;4343;53.648;10.098;2023-09-19T06:00:00;14.70;99.90
8611;DHT22;4343;53.648;10.098;2023-09-19T06:02:26;14.70;99.90
8611;DHT22;4343;53.648;10.098;2023-09-19T06:04:55;14.70;99.90
8611;DHT22;4343;53.648;10.098;2023-09-19T06:07:24;14.70;99.90
8611;DHT22;4343;53.648;10.098;2023-09-19T06:09:51;14.70;99.90
8611;DHT22;4343;53.648;10.098;2023-09-19T06:12:19;14.70;99.90
8611;DHT22;4343;53.648;10.098;2023-09-19T06:14:44;14.80;99.90
8611;DHT22;4343;53.648;10.098;2023-09-19T06:17:10;14.80;99.90
8611;DHT22;4343;53.648;10.098;2023-09-19T06:19:35;14.90;99.90
8611;DHT22;4343;53.648;10.098;2023-09-19T06:22:01;14.90;99.90
8611;DHT22;4343;53.648;10.098;2023-09-19T06:24:27;15.00;99.90
8611;DHT22;4343;53.648;10.098;2023-09-19T06:26:53;15.10;99.90
8611;DHT22;4343;53.648;10.098;2023-09-19T06:29:20;15.10;99.90
8611;DHT22;4343;53.648;10.098;2023-09-19T06:31:47;15.20;99.90
8611;DHT22;4343;53.648;10.098;2023-09-19T06:34:13;15.20;99.90
8611;DHT22;4343;53.648;10.098;2023-09-19T06:36:43;15.30;99.90
8611;DHT22;4343;53.648;10.098;2023-09-19T06:39:10;15.30;99.90
8611;DHT22;4343;53.648;10.098;2023-09-19T06:41:37;15.30;99.90
8611;DHT22;4343;53.648;10.098;2023-09-19T06:44:03;15.40;99.90
8611;DHT22;4343;53.648;10.098;2023-09-19T06:46:30;15.40;99.90
8611;DHT22;4343;53.648;10.098;2023-09-19T06:48:58;15.40;99.90
8611;DHT22;4343;53.648;10.098;2023-09-19T06:51:23;15.40;99.90
8611;DHT22;4343;53.648;10.098;2023-09-19T06:53:49;15.50;99.90
8611;DHT22;4343;53.648;10.098;2023-09-19T06:56:14;15.50;99.90
8611;DHT22;4343;53.648;10.098;2023-09-19T06:58:40;15.50;99.90
8611;DHT22;4343;53.648;10.098;2023-09-19T07:01:08;15.60;99.90
8611;DHT22;4343;53.648;10.098;2023-09-19T07:03:34;15.60;99.90
8611;DHT22;4343;53.648;10.098;2023-09-19T07:05:59;15.70;99.90
8611;DHT22;4343;53.648;10.098;2023-09-19T07:08:25;15.60;99.90
8611;DHT22;4343;53.648;10.098;2023-09-19T07:10:50;15.70;99.90
8611;DHT22;4343;53.648;10.098;2023-09-19T07:13:19;15.70;99.90
8611;DHT22;4343;53.648;10.098;2023-09-19T07:15:45;15.80;99.90
8611;DHT22;4343;53.648;10.098;2023-09-19T07:18:16;15.80;99.90
8611;DHT22;4343;53.648;10.098;2023-09-19T07:20:42;15.80;99.90
8611;DHT22;4343;53.648;10.098;2023-09-19T07:23:21;15.90;99.90
8611;DHT22;4343;53.648;10.098;2023-09-19T07:25:51;15.90;99.90
8611;DHT22;4343;53.648;10.098;2023-09-19T07:28:17;15.90;99.90
8611;DHT22;4343;53.648;10.098;2023-09-19T07:30:42;15.90;99.90
8611;DHT22;4343;53.648;10.098;2023-09-19T07:33:08;16.00;99.90
8611;DHT22;4343;53.648;10.098;2023-09-19T07:35:37;16.00;99.90
8611;DHT22;4343;53.648;10.098;2023-09-19T07:38:05;16.00;99.90
8611;DHT22;4343;53.648;10.098;2023-09-19T07:40:30;16.00;99.90
8611;DHT22;4343;53.648;10.098;2023-09-19T07:42:56;16.00;99.90
8611;DHT22;4343;53.648;10.098;2023-09-19T07:45:22;16.00;99.90
8611;DHT22;4343;53.648;10.098;2023-09-19T07:47:49;16.10;99.90
8611;DHT22;4343;53.648;10.098;2023-09-19T07:50:19;16.10;99.90
8611;DHT22;4343;53.648;10.098;2023-09-19T07:52:45;16.00;99.90
8611;DHT22;4343;53.648;10.098;2023-09-19T07:55:12;16.00;99.90
8611;DHT22;4343;53.648;10.098;2023-09-19T07:57:41;16.00;99.90
8611;DHT22;4343;53.648;10.098;2023-09-19T08:00:08;16.00;99.90
8611;DHT22;4343;53.648;10.098;2023-09-19T08:02:35;16.00;99.90
8611;DHT22;4343;53.648;10.098;2023-09-19T08:05:03;15.90;99.90
8611;DHT22;4343;53.648;10.098;2023-09-19T08:07:32;16.00;99.90
8611;DHT22;4343;53.648;10.098;2023-09-19T08:09:58;15.90;99.90
8611;DHT22;4343;53.648;10.098;2023-09-19T08:12:24;15.90;99.90
8611;DHT22;4343;53.648;10.098;2023-09-19T08:14:50;15.90;99.90
8611;DHT22;4343;53.648;10.098;2023-09-19T08:17:16;15.80;99.90
8611;DHT22;4343;53.648;10.098;2023-09-19T08:19:42;15.80;99.90
8611;DHT22;4343;53.648;10.098;2023-09-19T08:22:10;15.70;99.90
8611;DHT22;4343;53.648;10.098;2023-09-19T08:24:36;15.80;99.90
8611;DHT22;4343;53.648;10.098;2023-09-19T08:27:03;15.70;99.90
8611;DHT22;4343;53.648;10.098;2023-09-19T08:29:30;15.80;99.90
8611;DHT22;4343;53.648;10.098;2023-09-19T08:31:56;15.80;99.90
8611;DHT22;4343;53.648;10.098;2023-09-19T08:34:23;15.80;99.90
8611;DHT22;4343;53.648;10.098;2023-09-19T08:36:54;15.80;99.90
8611;DHT22;4343;53.648;10.098;2023-09-19T08:39:23;15.80;99.90
8611;DHT22;4343;53.648;10.098;2023-09-19T08:41:48;15.90;99.90
8611;DHT22;4343;53.648;10.098;2023-09-19T08:44:14;15.90;99.90
8611;DHT22;4343;53.648;10.098;2023-09-19T08:46:41;16.00;99.90
8611;DHT22;4343;53.648;10.098;2023-09-19T08:54:52;16.00;99.90
8611;DHT22;4343;53.648;10.098;2023-09-19T08:57:21;16.10;99.90
8611;DHT22;4343;53.648;10.098;2023-09-19T08:59:48;16.10;99.90
8611;DHT22;4343;53.648;10.098;2023-09-19T09:02:18;16.10;99.90
8611;DHT22;4343;53.648;10.098;2023-09-19T09:04:47;16.10;99.90
8611;DHT22;4343;53.648;10.098;2023-09-19T09:07:14;16.10;99.90
8611;DHT22;4343;53.648;10.098;2023-09-19T09:09:40;16.20;99.90
8611;DHT22;4343;53.648;10.098;2023-09-19T09:12:12;16.20;99.90
8611;DHT22;4343;53.648;10.098;2023-09-19T09:14:39;16.20;99.90
8611;DHT22;4343;53.648;10.098;2023-09-19T09:17:05;16.20;99.90
8611;DHT22;4343;53.648;10.098;2023-09-19T09:19:31;16.30;99.90
8611;DHT22;4343;53.648;10.098;2023-09-19T09:22:10;16.30;99.90
8611;DHT22;4343;53.648;10.098;2023-09-19T09:24:37;16.30;99.90
8611;DHT22;4343;53.648;10.098;2023-09-19T09:27:05;16.30;99.90
8611;DHT22;4343;53.648;10.098;2023-09-19T09:29:42;16.30;99.90
8611;DHT22;4343;53.648;10.098;2023-09-19T09:34:51;16.40;99.90
8611;DHT22;4343;53.648;10.098;2023-09-19T09:37:18;16.40;99.90
8611;DHT22;4343;53.648;10.098;2023-09-19T09:39:54;16.50;99.90
8611;DHT22;4343;53.648;10.098;2023-09-19T09:42:37;16.60;99.90
8611;DHT22;4343;53.648;10.098;2023-09-19T09:45:23;16.60;99.90
8611;DHT22;4343;53.648;10.098;2023-09-19T09:48:01;16.70;99.90
8611;DHT22;4343;53.648;10.098;2023-09-19T09:50:36;16.80;99.90
8611;DHT22;4343;53.648;10.098;2023-09-19T09:53:25;16.90;99.90
8611;DHT22;4343;53.648;10.098;2023-09-19T09:56:00;16.90;99.90
8611;DHT22;4343;53.648;10.098;2023-09-19T09:58:26;17.00;99.90
8611;DHT22;4343;53.648;10.098;2023-09-19T10:00:58;17.10;99.90
8611;DHT22;4343;53.648;10.098;2023-09-19T10:03:38;17.20;99.90
8611;DHT22;4343;53.648;10.098;2023-09-19T10:06:12;17.30;99.90
8611;DHT22;4343;53.648;10.098;2023-09-19T10:09:07;17.40;99.90
8611;DHT22;4343;53.648;10.098;2023-09-19T10:11:45;17.50;99.90
8611;DHT22;4343;53.648;10.098;2023-09-19T10:14:14;17.60;99.90
8611;DHT22;4343;53.648;10.098;2023-09-19T10:16:44;17.60;99.90
8611;DHT22;4343;53.648;10.098;2023-09-19T10:19:15;17.70;99.90
8611;DHT22;4343;53.648;10.098;2023-09-19T10:21:41;17.70;99.90
8611;DHT22;4343;53.648;10.098;2023-09-19T10:24:09;17.70;99.90
8611;DHT22;4343;53.648;10.098;2023-09-19T10:26:36;17.70;99.90
8611;DHT22;4343;53.648;10.098;2023-09-19T10:29:01;17.80;99.90
8611;DHT22;4343;53.648;10.098;2023-09-19T10:31:29;17.80;99.90
8611;DHT22;4343;53.648;10.098;2023-09-19T10:34:02;17.80;99.90
8611;DHT22;4343;53.648;10.098;2023-09-19T10:36:32;17.90;99.90
8611;DHT22;4343;53.648;10.098;2023-09-19T10:39:02;17.90;99.90
8611;DHT22;4343;53.648;10.098;2023-09-19T10:41:32;17.90;99.90
8611;DHT22;4343;53.648;10.098;2023-09-19T10:44:03;18.00;99.90
8611;DHT22;4343;53.648;10.098;2023-09-19T10:46:32;18.10;99.90
8611;DHT22;4343;53.648;10.098;2023-09-19T10:49:00;18.20;99.90
8611;DHT22;4343;53.648;10.098;2023-09-19T10:51:30;18.20;99.90
8611;DHT22;4343;53.648;10.098;2023-09-19T10:54:06;18.20;99.90
8611;DHT22;4343;53.648;10.098;2023-09-19T10:56:38;18.20;99.90
8611;DHT22;4343;53.648;10.098;2023-09-19T10:59:07;18.20;99.90
8611;DHT22;4343;53.648;10.098;2023-09-19T11:01:49;18.20;99.90
8611;DHT22;4343;53.648;10.098;2023-09-19T11:04:31;18.30;99.90
8611;DHT22;4343;53.648;10.098;2023-09-19T11:07:08;18.30;99.90
8611;DHT22;4343;53.648;10.098;2023-09-19T11:09:55;18.30;99.90
8611;DHT22;4343;53.648;10.098;2023-09-19T11:15:11;18.30;99.90
8611;DHT22;4343;53.648;10.098;2023-09-19T11:17:58;18.40;99.90
8611;DHT22;4343;53.648;10.098;2023-09-19T11:20:25;18.40;99.90
8611;DHT22;4343;53.648;10.098;2023-09-19T11:30:50;18.40;99.90
8611;DHT22;4343;53.648;10.098;2023-09-19T11:33:20;18.30;99.90
8611;DHT22;4343;53.648;10.098;2023-09-19T11:36:10;18.30;99.90
8611;DHT22;4343;53.648;10.098;2023-09-19T11:43:46;18.30;99.90
8611;DHT22;4343;53.648;10.098;2023-09-19T11:46:12;18.30;99.90
8611;DHT22;4343;53.648;10.098;2023-09-19T11:48:42;18.30;99.90
8611;DHT22;4343;53.648;10.098;2023-09-19T11:51:11;18.30;99.90
8611;DHT22;4343;53.648;10.098;2023-09-19T11:53:48;18.30;99.90
8611;DHT22;4343;53.648;10.098;2023-09-19T11:56:23;18.30;99.90
8611;DHT22;4343;53.648;10.098;2023-09-19T11:58:54;18.20;99.90
8611;DHT22;4343;53.648;10.098;2023-09-19T12:01:30;18.20;99.90
8611;DHT22;4343;53.648;10.098;2023-09-19T12:03:58;18.20;99.90
8611;DHT22;4343;53.648;10.098;2023-09-19T12:06:28;18.20;99.90
8611;DHT22;4343;53.648;10.098;2023-09-19T12:08:55;18.20;99.90
8611;DHT22;4343;53.648;10.098;2023-09-19T12:11:23;18.30;99.90
8611;DHT22;4343;53.648;10.098;2023-09-19T12:13:49;18.30;99.90
8611;DHT22;4343;53.648;10.098;2023-09-19T12:16:16;18.40;99.90
8611;DHT22;4343;53.648;10.098;2023-09-19T12:18:45;18.50;99.90
8611;DHT22;4343;53.648;10.098;2023-09-19T12:21:32;18.50;99.90
8611;DHT22;4343;53.648;10.098;2023-09-19T12:26:45;18.60;99.90
8611;DHT22;4343;53.648;10.098;2023-09-19T12:29:21;18.60;99.90
8611;DHT22;4343;53.648;10.098;2023-09-19T12:31:57;18.70;99.90
8611;DHT22;4343;53.648;10.098;2023-09-19T12:34:25;18.70;99.90
8611;DHT22;4343;53.648;10.098;2023-09-19T12:37:14;18.80;99.90
8611;DHT22;4343;53.648;10.098;2023-09-19T12:39:52;18.90;99.90
8611;DHT22;4343;53.648;10.098;2023-09-19T12:42:24;18.90;99.90
8611;DHT22;4343;53.648;10.098;2023-09-19T12:44:55;18.90;99.90
8611;DHT22;4343;53.648;10.098;2023-09-19T12:47:23;19.00;99.90
8611;DHT22;4343;53.648;10.098;2023-09-19T12:50:09;19.00;99.90
8611;DHT22;4343;53.648;10.098;2023-09-19T12:52:51;19.10;99.90
8611;DHT22;4343;53.648;10.098;2023-09-19T12:55:25;19.20;99.90
8611;DHT22;4343;53.648;10.098;2023-09-19T12:57:59;19.20;99.90
8611;DHT22;4343;53.648;10.098;2023-09-19T13:05:53;19.40;99.90
8611;DHT22;4343;53.648;10.098;2023-09-19T13:08:27;19.40;99.90
8611;DHT22;4343;53.648;10.098;2023-09-19T13:13:41;19.40;99.90
8611;DHT22;4343;53.648;10.098;2023-09-19T13:16:07;19.50;99.90
8611;DHT22;4343;53.648;10.098;2023-09-19T13:18:47;19.50;99.90
8611;DHT22;4343;53.648;10.098;2023-09-19T13:21:16;19.50;99.90
8611;DHT22;4343;53.648;10.098;2023-09-19T13:23:52;19.60;99.90
8611;DHT22;4343;53.648;10.098;2023-09-19T13:26:18;19.60;99.90
8611;DHT22;4343;53.648;10.098;2023-09-19T13:28:44;19.60;99.90
8611;DHT22;4343;53.648;10.098;2023-09-19T13:31:10;19.70;99.90
8611;DHT22;4343;53.648;10.098;2023-09-19T13:33:57;19.80;99.90
8611;DHT22;4343;53.648;10.098;2023-09-19T13:36:23;19.80;99.90
8611;DHT22;4343;53.648;10.098;2023-09-19T13:38:48;19.90;99.90
8611;DHT22;4343;53.648;10.098;2023-09-19T13:41:14;19.80;99.90
8611;DHT22;4343;53.648;10.098;2023-09-19T13:43:40;19.80;99.90
8611;DHT22;4343;53.648;10.098;2023-09-19T13:46:06;19.80;99.90
8611;DHT22;4343;53.648;10.098;2023-09-19T13:48:40;19.80;99.90
8611;DHT22;4343;53.648;10.098;2023-09-19T13:51:05;19.80;99.90
8611;DHT22;4343;53.648;10.098;2023-09-19T13:53:31;19.80;99.90
8611;DHT22;4343;53.648;10.098;2023-09-19T13:55:56;19.80;99.90
8611;DHT22;4343;53.648;10.098;2023-09-19T13:58:22;19.80;99.90
8611;DHT22;4343;53.648;10.098;2023-09-19T14:00:52;19.70;99.90
8611;DHT22;4343;53.648;10.098;2023-09-19T14:03:20;19.70;99.90
8611;DHT22;4343;53.648;10.098;2023-09-19T14:05:46;19.60;99.90
8611;DHT22;4343;53.648;10.098;2023-09-19T14:08:13;19.60;99.90
8611;DHT22;4343;53.648;10.098;2023-09-19T14:10:39;19.60;99.90
8611;DHT22;4343;53.648;10.098;2023-09-19T14:13:04;19.60;99.90
8611;DHT22;4343;53.648;10.098;2023-09-19T14:15:30;19.60;99.90
8611;DHT22;4343;53.648;10.098;2023-09-19T14:17:59;19.60;99.90
8611;DHT22;4343;53.648;10.098;2023-09-19T14:20:26;19.60;99.90
8611;DHT22;4343;53.648;10.098;2023-09-19T14:22:56;19.60;99.90
8611;DHT22;4343;53.648;10.098;2023-09-19T14:25:21;19.60;99.90
8611;DHT22;4343;53.648;10.098;2023-09-19T14:27:48;19.60;99.90
8611;DHT22;4343;53.648;10.098;2023-09-19T14:30:13;19.50;99.90
8611;DHT22;4343;53.648;10.098;2023-09-19T14:32:39;19.50;99.90
8611;DHT22;4343;53.648;10.098;2023-09-19T14:35:09;19.40;99.90
8611;DHT22;4343;53.648;10.098;2023-09-19T14:37:39;19.50;99.90
8611;DHT22;4343;53.648;10.098;2023-09-19T14:40:05;19.50;99.90
8611;DHT22;4343;53.648;10.098;2023-09-19T14:42:38;19.40;99.90
8611;DHT22;4343;53.648;10.098;2023-09-19T14:45:04;19.40;99.90
8611;DHT22;4343;53.648;10.098;2023-09-19T14:47:30;19.40;99.90
8611;DHT22;4343;53.648;10.098;2023-09-19T14:50:02;19.40;99.90
8611;DHT22;4343;53.648;10.098;2023-09-19T14:52:35;19.40;99.90
8611;DHT22;4343;53.648;10.098;2023-09-19T14:55:01;19.30;99.90
8611;DHT22;4343;53.648;10.098;2023-09-19T14:57:27;19.30;99.90
8611;DHT22;4343;53.648;10.098;2023-09-19T14:59:53;19.20;99.90
8611;DHT22;4343;53.648;10.098;2023-09-19T15:02:19;19.20;99.90
8611;DHT22;4343;53.648;10.098;2023-09-19T15:04:45;19.20;99.90
8611;DHT22;4343;53.648;10.098;2023-09-19T15:07:15;19.10;99.90
8611;DHT22;4343;53.648;10.098;2023-09-19T15:09:41;19.10;99.90
8611;DHT22;4343;53.648;10.098;2023-09-19T15:12:07;19.10;99.90
8611;DHT22;4343;53.648;10.098;2023-09-19T15:14:33;19.00;99.90
8611;DHT22;4343;53.648;10.098;2023-09-19T15:16:58;19.00;99.90
8611;DHT22;4343;53.648;10.098;2023-09-19T15:19:24;19.00;99.90
8611;DHT22;4343;53.648;10.098;2023-09-19T15:21:50;19.00;99.90
8611;DHT22;4343;53.648;10.098;2023-09-19T15:24:15;18.90;99.90
8611;DHT22;4343;53.648;10.098;2023-09-19T15:26:42;18.90;99.90
8611;DHT22;4343;53.648;10.098;2023-09-19T15:29:09;18.90;99.90
8611;DHT22;4343;53.648;10.098;2023-09-19T15:31:36;18.90;99.90
8611;DHT22;4343;53.648;10.098;2023-09-19T15:34:04;18.80;99.90
8611;DHT22;4343;53.648;10.098;2023-09-19T15:36:33;18.80;99.90
8611;DHT22;4343;53.648;10.098;2023-09-19T15:39:06;18.80;99.90
8611;DHT22;4343;53.648;10.098;2023-09-19T15:41:40;18.70;99.90
8611;DHT22;4343;53.648;10.098;2023-09-19T15:44:16;18.70;99.90
8611;DHT22;4343;53.648;10.098;2023-09-19T15:46:42;18.70;99.90
8611;DHT22;4343;53.648;10.098;2023-09-19T15:49:09;18.70;99.90
8611;DHT22;4343;53.648;10.098;2023-09-19T15:51:34;18.70;99.90
8611;DHT22;4343;53.648;10.098;2023-09-19T15:54:13;18.70;99.90
8611;DHT22;4343;53.648;10.098;2023-09-19T15:56:40;18.70;99.90
8611;DHT22;4343;53.648;10.098;2023-09-19T15:59:06;18.70;99.90
8611;DHT22;4343;53.648;10.098;2023-09-19T16:01:32;18.70;99.90
8611;DHT22;4343;53.648;10.098;2023-09-19T16:03:58;18.60;99.90
8611;DHT22;4343;53.648;10.098;2023-09-19T16:06:26;18.60;99.90
8611;DHT22;4343;53.648;10.098;2023-09-19T16:08:54;18.60;99.90
8611;DHT22;4343;53.648;10.098;2023-09-19T16:11:21;18.60;99.90
8611;DHT22;4343;53.648;10.098;2023-09-19T16:13:48;18.60;99.90
8611;DHT22;4343;53.648;10.098;2023-09-19T16:16:15;18.60;99.90
8611;DHT22;4343;53.648;10.098;2023-09-19T16:18:48;18.60;99.90
8611;DHT22;4343;53.648;10.098;2023-09-19T16:21:15;18.60;99.90
8611;DHT22;4343;53.648;10.098;2023-09-19T16:23:44;18.50;99.90
8611;DHT22;4343;53.648;10.098;2023-09-19T16:26:10;18.50;99.90
8611;DHT22;4343;53.648;10.098;2023-09-19T16:28:37;18.50;99.90
8611;DHT22;4343;53.648;10.098;2023-09-19T16:31:07;18.50;99.90
8611;DHT22;4343;53.648;10.098;2023-09-19T16:33:37;18.50;99.90
8611;DHT22;4343;53.648;10.098;2023-09-19T16:36:16;18.50;99.90